sensor_id;sensor_type;location;lat;lon;timestamp;pressure;altitude;pressure_sealevel;temperature
27986;BMP280;15453;53.692;10.168;2023-06-22T00:00:50;101638.84;;;24.98
27986;BMP280;15453;53.692;10.168;2023-06-22T00:03:18;101642.59;;;24.93
27986;BMP280;15453;53.692;10.168;2023-06-22T00:05:43;101649.16;;;24.89
27986;BMP280;15453;53.692;10.168;2023-06-22T00:08:08;101643.69;;;24.84
27986;BMP280;15453;53.692;10.168;2023-06-22T00:10:34;101653.91;;;24.80
27986;BMP280;15453;53.692;10.168;2023-06-22T00:12:59;101650.09;;;24.76
27986;BMP280;15453;53.692;10.168;2023-06-22T00:15:25;101644.31;;;24.72
27986;BMP280;15453;53.692;10.168;2023-06-22T00:17:50;101655.34;;;24.69
27986;BMP280;15453;53.692;10.168;2023-06-22T00:20:16;101649.53;;;24.65
27986;BMP280;15453;53.692;10.168;2023-06-22T00:22:43;101649.53;;;24.65
27986;BMP280;15453;53.692;10.168;2023-06-22T00:25:09;101638.75;;;24.59
27986;BMP280;15453;53.692;10.168;2023-06-22T00:27:35;101628.19;;;24.56
27986;BMP280;15453;53.692;10.168;2023-06-22T00:30:00;101628.84;;;24.53
27986;BMP280;15453;53.692;10.168;2023-06-22T00:32:25;101649.59;;;24.52
27986;BMP280;15453;53.692;10.168;2023-06-22T00:34:50;101649.59;;;24.52
27986;BMP280;15453;53.692;10.168;2023-06-22T00:37:16;101650.03;;;24.45
27986;BMP280;15453;53.692;10.168;2023-06-22T00:39:42;101646.22;;;24.41
27986;BMP280;15453;53.692;10.168;2023-06-22T00:42:08;101643.25;;;24.38
27986;BMP280;15453;53.692;10.168;2023-06-22T00:44:33;101658.22;;;24.33
27986;BMP280;15453;53.692;10.168;2023-06-22T00:46:58;101658.22;;;24.33
27986;BMP280;15453;53.692;10.168;2023-06-22T00:49:25;101651.06;;;24.27
27986;BMP280;15453;53.692;10.168;2023-06-22T00:51:50;101651.72;;;24.24
27986;BMP280;15453;53.692;10.168;2023-06-22T00:54:16;101651.22;;;24.22
27986;BMP280;15453;53.692;10.168;2023-06-22T00:56:46;101647.09;;;24.20
27986;BMP280;15453;53.692;10.168;2023-06-22T00:59:11;101653.00;;;24.18
27986;BMP280;15453;53.692;10.168;2023-06-22T01:01:37;101659.22;;;24.15
27986;BMP280;15453;53.692;10.168;2023-06-22T01:04:06;101667.94;;;24.14
27986;BMP280;15453;53.692;10.168;2023-06-22T01:06:35;101667.94;;;24.14
27986;BMP280;15453;53.692;10.168;2023-06-22T01:09:15;101658.84;;;24.08
27986;BMP280;15453;53.692;10.168;2023-06-22T01:12:16;101667.88;;;24.05
27986;BMP280;15453;53.692;10.168;2023-06-22T01:14:58;101659.41;;;23.97
27986;BMP280;15453;53.692;10.168;2023-06-22T01:17:27;101660.25;;;23.97
27986;BMP280;15453;53.692;10.168;2023-06-22T01:19:55;101670.59;;;23.97
27986;BMP280;15453;53.692;10.168;2023-06-22T01:22:23;101662.00;;;23.93
27986;BMP280;15453;53.692;10.168;2023-06-22T01:25:00;101668.19;;;23.90
27986;BMP280;15453;53.692;10.168;2023-06-22T01:30:07;101664.81;;;23.80
27986;BMP280;15453;53.692;10.168;2023-06-22T01:32:36;101669.25;;;23.81
27986;BMP280;15453;53.692;10.168;2023-06-22T01:35:05;101667.63;;;23.80
27986;BMP280;15453;53.692;10.168;2023-06-22T01:37:32;101667.63;;;23.80
27986;BMP280;15453;53.692;10.168;2023-06-22T01:39:59;101652.09;;;23.74
27986;BMP280;15453;53.692;10.168;2023-06-22T01:42:25;101649.63;;;23.72
27986;BMP280;15453;53.692;10.168;2023-06-22T01:44:53;101651.88;;;23.70
27986;BMP280;15453;53.692;10.168;2023-06-22T01:47:19;101656.13;;;23.68
27986;BMP280;15453;53.692;10.168;2023-06-22T01:49:45;101644.75;;;23.64
27986;BMP280;15453;53.692;10.168;2023-06-22T01:52:11;101643.72;;;23.60
27986;BMP280;15453;53.692;10.168;2023-06-22T01:54:39;101640.75;;;23.57
27986;BMP280;15453;53.692;10.168;2023-06-22T01:57:04;101644.34;;;23.57
27986;BMP280;15453;53.692;10.168;2023-06-22T01:59:35;101644.34;;;23.57
27986;BMP280;15453;53.692;10.168;2023-06-22T02:02:09;101655.16;;;23.50
27986;BMP280;15453;53.692;10.168;2023-06-22T02:04:55;101643.63;;;23.52
27986;BMP280;15453;53.692;10.168;2023-06-22T02:07:23;101649.88;;;23.49
27986;BMP280;15453;53.692;10.168;2023-06-22T02:09:50;101656.59;;;23.48
27986;BMP280;15453;53.692;10.168;2023-06-22T02:12:18;101656.09;;;23.46
27986;BMP280;15453;53.692;10.168;2023-06-22T02:14:46;101649.47;;;23.42
27986;BMP280;15453;53.692;10.168;2023-06-22T02:17:12;101640.88;;;23.38
27986;BMP280;15453;53.692;10.168;2023-06-22T02:19:38;101652.38;;;23.37
27986;BMP280;15453;53.692;10.168;2023-06-22T02:22:05;101650.19;;;23.34
27986;BMP280;15453;53.692;10.168;2023-06-22T02:24:31;101658.41;;;23.30
27986;BMP280;15453;53.692;10.168;2023-06-22T02:27:01;101662.66;;;23.28
27986;BMP280;15453;53.692;10.168;2023-06-22T02:29:27;101651.25;;;23.24
27986;BMP280;15453;53.692;10.168;2023-06-22T02:31:52;101667.91;;;23.16
27986;BMP280;15453;53.692;10.168;2023-06-22T02:34:18;101653.84;;;23.21
27986;BMP280;15453;53.692;10.168;2023-06-22T02:36:47;101653.63;;;23.17
27986;BMP280;15453;53.692;10.168;2023-06-22T02:39:23;101652.88;;;23.12
27986;BMP280;15453;53.692;10.168;2023-06-22T02:41:50;101649.88;;;23.08
27986;BMP280;15453;53.692;10.168;2023-06-22T02:44:16;101646.88;;;23.05
27986;BMP280;15453;53.692;10.168;2023-06-22T02:46:42;101636.00;;;23.03
27986;BMP280;15453;53.692;10.168;2023-06-22T02:49:07;101638.28;;;23.01
27986;BMP280;15453;53.692;10.168;2023-06-22T02:51:33;101640.84;;;22.98
27986;BMP280;15453;53.692;10.168;2023-06-22T02:53:59;101644.00;;;22.96
27986;BMP280;15453;53.692;10.168;2023-06-22T02:56:24;101643.44;;;22.94
27986;BMP280;15453;53.692;10.168;2023-06-22T02:58:50;101646.06;;;22.91
27986;BMP280;15453;53.692;10.168;2023-06-22T03:01:15;101640.22;;;22.87
27986;BMP280;15453;53.692;10.168;2023-06-22T03:03:40;101643.66;;;22.84
27986;BMP280;15453;53.692;10.168;2023-06-22T03:06:06;101647.06;;;22.81
27986;BMP280;15453;53.692;10.168;2023-06-22T03:08:31;101647.06;;;22.81
27986;BMP280;15453;53.692;10.168;2023-06-22T03:10:56;101637.94;;;22.76
27986;BMP280;15453;53.692;10.168;2023-06-22T03:13:21;101647.16;;;22.76
27986;BMP280;15453;53.692;10.168;2023-06-22T03:15:47;101651.72;;;22.72
27986;BMP280;15453;53.692;10.168;2023-06-22T03:18:12;101651.72;;;22.72
27986;BMP280;15453;53.692;10.168;2023-06-22T03:20:37;101647.88;;;22.68
27986;BMP280;15453;53.692;10.168;2023-06-22T03:23:03;101652.94;;;22.66
27986;BMP280;15453;53.692;10.168;2023-06-22T03:25:28;101651.28;;;22.65
27986;BMP280;15453;53.692;10.168;2023-06-22T03:27:53;101644.34;;;22.63
27986;BMP280;15453;53.692;10.168;2023-06-22T03:30:19;101649.44;;;22.61
27986;BMP280;15453;53.692;10.168;2023-06-22T03:32:44;101653.97;;;22.57
27986;BMP280;15453;53.692;10.168;2023-06-22T03:35:11;101662.97;;;22.54
27986;BMP280;15453;53.692;10.168;2023-06-22T03:37:39;101662.97;;;22.54
27986;BMP280;15453;53.692;10.168;2023-06-22T03:40:05;101661.38;;;22.48
27986;BMP280;15453;53.692;10.168;2023-06-22T03:42:30;101671.72;;;22.47
27986;BMP280;15453;53.692;10.168;2023-06-22T03:44:55;101672.00;;;22.46
27986;BMP280;15453;53.692;10.168;2023-06-22T03:47:22;101671.47;;;22.44
27986;BMP280;15453;53.692;10.168;2023-06-22T03:49:47;101671.78;;;22.42
27986;BMP280;15453;53.692;10.168;2023-06-22T03:52:12;101666.50;;;22.41
27986;BMP280;15453;53.692;10.168;2023-06-22T03:54:37;101670.44;;;22.40
27986;BMP280;15453;53.692;10.168;2023-06-22T03:57:03;101681.28;;;22.41
27986;BMP280;15453;53.692;10.168;2023-06-22T03:59:28;101681.28;;;22.41
27986;BMP280;15453;53.692;10.168;2023-06-22T04:01:53;101670.19;;;22.36
27986;BMP280;15453;53.692;10.168;2023-06-22T04:04:19;101683.03;;;22.37
27986;BMP280;15453;53.692;10.168;2023-06-22T04:06:45;101674.34;;;22.39
27986;BMP280;15453;53.692;10.168;2023-06-22T04:09:10;101674.03;;;22.40
27986;BMP280;15453;53.692;10.168;2023-06-22T04:11:35;101682.13;;;22.42
27986;BMP280;15453;53.692;10.168;2023-06-22T04:14:01;101676.22;;;22.43
27986;BMP280;15453;53.692;10.168;2023-06-22T04:16:26;101680.38;;;22.46
27986;BMP280;15453;53.692;10.168;2023-06-22T04:18:51;101694.56;;;22.49
27986;BMP280;15453;53.692;10.168;2023-06-22T04:21:17;101692.22;;;22.56
27986;BMP280;15453;53.692;10.168;2023-06-22T04:23:44;101691.94;;;22.58
27986;BMP280;15453;53.692;10.168;2023-06-22T04:26:11;101690.78;;;22.59
27986;BMP280;15453;53.692;10.168;2023-06-22T04:28:36;101690.78;;;22.59
27986;BMP280;15453;53.692;10.168;2023-06-22T04:31:07;101698.56;;;22.62
27986;BMP280;15453;53.692;10.168;2023-06-22T04:33:33;101698.56;;;22.62
27986;BMP280;15453;53.692;10.168;2023-06-22T04:35:58;101697.72;;;22.61
27986;BMP280;15453;53.692;10.168;2023-06-22T04:38:26;101695.47;;;22.63
27986;BMP280;15453;53.692;10.168;2023-06-22T04:40:52;101696.81;;;22.66
27986;BMP280;15453;53.692;10.168;2023-06-22T04:43:18;101708.94;;;22.75
27986;BMP280;15453;53.692;10.168;2023-06-22T04:45:44;101701.91;;;22.77
27986;BMP280;15453;53.692;10.168;2023-06-22T04:48:09;101701.91;;;22.77
27986;BMP280;15453;53.692;10.168;2023-06-22T04:50:38;101701.78;;;22.82
27986;BMP280;15453;53.692;10.168;2023-06-22T04:53:04;101701.19;;;22.85
27986;BMP280;15453;53.692;10.168;2023-06-22T04:55:31;101701.94;;;22.91
27986;BMP280;15453;53.692;10.168;2023-06-22T04:57:56;101701.94;;;22.91
27986;BMP280;15453;53.692;10.168;2023-06-22T05:00:22;101701.72;;;23.01
27986;BMP280;15453;53.692;10.168;2023-06-22T05:02:48;101701.72;;;23.01
27986;BMP280;15453;53.692;10.168;2023-06-22T05:05:14;101698.75;;;23.11
27986;BMP280;15453;53.692;10.168;2023-06-22T05:07:43;101698.75;;;23.11
27986;BMP280;15453;53.692;10.168;2023-06-22T05:10:11;101704.72;;;23.18
27986;BMP280;15453;53.692;10.168;2023-06-22T05:12:38;101704.72;;;23.18
27986;BMP280;15453;53.692;10.168;2023-06-22T05:15:04;101698.34;;;23.17
27986;BMP280;15453;53.692;10.168;2023-06-22T05:17:29;101703.75;;;23.27
27986;BMP280;15453;53.692;10.168;2023-06-22T05:19:54;101707.88;;;23.30
27986;BMP280;15453;53.692;10.168;2023-06-22T05:22:20;101705.63;;;23.32
27986;BMP280;15453;53.692;10.168;2023-06-22T05:24:45;101714.19;;;23.35
27986;BMP280;15453;53.692;10.168;2023-06-22T05:27:10;101716.06;;;23.40
27986;BMP280;15453;53.692;10.168;2023-06-22T05:29:37;101716.06;;;23.40
27986;BMP280;15453;53.692;10.168;2023-06-22T05:32:02;101712.00;;;23.46
27986;BMP280;15453;53.692;10.168;2023-06-22T05:34:28;101706.31;;;23.51
27986;BMP280;15453;53.692;10.168;2023-06-22T05:36:53;101716.25;;;23.57
27986;BMP280;15453;53.692;10.168;2023-06-22T05:39:18;101703.31;;;23.61
27986;BMP280;15453;53.692;10.168;2023-06-22T05:41:44;101703.31;;;23.61
27986;BMP280;15453;53.692;10.168;2023-06-22T05:44:10;101708.34;;;23.72
27986;BMP280;15453;53.692;10.168;2023-06-22T05:46:36;101713.53;;;23.79
27986;BMP280;15453;53.692;10.168;2023-06-22T05:49:01;101715.38;;;23.83
27986;BMP280;15453;53.692;10.168;2023-06-22T05:51:26;101711.94;;;23.86
27986;BMP280;15453;53.692;10.168;2023-06-22T05:53:51;101716.09;;;23.89
27986;BMP280;15453;53.692;10.168;2023-06-22T05:56:17;101716.09;;;23.89
27986;BMP280;15453;53.692;10.168;2023-06-22T05:58:42;101711.53;;;23.93
27986;BMP280;15453;53.692;10.168;2023-06-22T06:01:07;101724.06;;;23.95
27986;BMP280;15453;53.692;10.168;2023-06-22T06:03:33;101711.44;;;23.98
27986;BMP280;15453;53.692;10.168;2023-06-22T06:05:58;101713.59;;;24.01
27986;BMP280;15453;53.692;10.168;2023-06-22T06:08:23;101713.59;;;24.01
27986;BMP280;15453;53.692;10.168;2023-06-22T06:10:48;101703.25;;;24.01
27986;BMP280;15453;53.692;10.168;2023-06-22T06:13:14;101707.38;;;24.04
27986;BMP280;15453;53.692;10.168;2023-06-22T06:15:39;101701.22;;;24.15
27986;BMP280;15453;53.692;10.168;2023-06-22T06:18:05;101701.22;;;24.15
27986;BMP280;15453;53.692;10.168;2023-06-22T06:20:31;101703.44;;;24.27
27986;BMP280;15453;53.692;10.168;2023-06-22T06:22:57;101695.25;;;24.30
27986;BMP280;15453;53.692;10.168;2023-06-22T06:25:22;101695.25;;;24.30
27986;BMP280;15453;53.692;10.168;2023-06-22T06:27:49;101693.78;;;24.33
27986;BMP280;15453;53.692;10.168;2023-06-22T06:30:16;101692.31;;;24.35
27986;BMP280;15453;53.692;10.168;2023-06-22T06:32:42;101701.44;;;24.41
27986;BMP280;15453;53.692;10.168;2023-06-22T06:35:09;101695.75;;;24.54
27986;BMP280;15453;53.692;10.168;2023-06-22T06:37:38;101695.75;;;24.54
27986;BMP280;15453;53.692;10.168;2023-06-22T06:40:04;101691.81;;;24.55
27986;BMP280;15453;53.692;10.168;2023-06-22T06:42:32;101697.16;;;24.65
27986;BMP280;15453;53.692;10.168;2023-06-22T06:44:57;101691.75;;;24.69
27986;BMP280;15453;53.692;10.168;2023-06-22T06:47:23;101691.75;;;24.69
27986;BMP280;15453;53.692;10.168;2023-06-22T06:49:48;101687.28;;;24.68
27986;BMP280;15453;53.692;10.168;2023-06-22T06:52:13;101701.16;;;24.73
27986;BMP280;15453;53.692;10.168;2023-06-22T06:54:38;101701.16;;;24.73
27986;BMP280;15453;53.692;10.168;2023-06-22T06:57:04;101695.91;;;24.71
27986;BMP280;15453;53.692;10.168;2023-06-22T06:59:29;101687.66;;;24.75
27986;BMP280;15453;53.692;10.168;2023-06-22T07:01:55;101687.66;;;24.75
27986;BMP280;15453;53.692;10.168;2023-06-22T07:04:21;101689.16;;;24.72
27986;BMP280;15453;53.692;10.168;2023-06-22T07:06:46;101682.38;;;24.73
27986;BMP280;15453;53.692;10.168;2023-06-22T07:09:11;101690.47;;;24.75
27986;BMP280;15453;53.692;10.168;2023-06-22T07:11:36;101679.44;;;24.78
27986;BMP280;15453;53.692;10.168;2023-06-22T07:14:02;101674.03;;;24.82
27986;BMP280;15453;53.692;10.168;2023-06-22T07:16:27;101675.84;;;24.86
27986;BMP280;15453;53.692;10.168;2023-06-22T07:18:53;101679.97;;;24.89
27986;BMP280;15453;53.692;10.168;2023-06-22T07:21:19;101675.38;;;24.93
27986;BMP280;15453;53.692;10.168;2023-06-22T07:23:44;101676.72;;;24.95
27986;BMP280;15453;53.692;10.168;2023-06-22T07:26:09;101687.66;;;25.05
27986;BMP280;15453;53.692;10.168;2023-06-22T07:28:34;101687.66;;;25.05
27986;BMP280;15453;53.692;10.168;2023-06-22T07:31:03;101686.81;;;25.05
27986;BMP280;15453;53.692;10.168;2023-06-22T07:33:29;101692.63;;;25.08
27986;BMP280;15453;53.692;10.168;2023-06-22T07:35:54;101686.88;;;25.13
27986;BMP280;15453;53.692;10.168;2023-06-22T07:38:20;101680.78;;;25.20
27986;BMP280;15453;53.692;10.168;2023-06-22T07:40:45;101683.13;;;25.26
27986;BMP280;15453;53.692;10.168;2023-06-22T07:43:10;101678.72;;;25.34
27986;BMP280;15453;53.692;10.168;2023-06-22T07:45:37;101674.28;;;25.41
27986;BMP280;15453;53.692;10.168;2023-06-22T07:48:03;101680.59;;;25.64
27986;BMP280;15453;53.692;10.168;2023-06-22T07:50:28;101687.72;;;25.70
27986;BMP280;15453;53.692;10.168;2023-06-22T07:52:54;101687.72;;;25.70
27986;BMP280;15453;53.692;10.168;2023-06-22T07:55:19;101679.47;;;25.73
27986;BMP280;15453;53.692;10.168;2023-06-22T07:57:47;101685.75;;;25.79
27986;BMP280;15453;53.692;10.168;2023-06-22T08:00:13;101684.94;;;25.87
27986;BMP280;15453;53.692;10.168;2023-06-22T08:02:41;101684.47;;;25.93
27986;BMP280;15453;53.692;10.168;2023-06-22T08:05:08;101679.03;;;25.97
27986;BMP280;15453;53.692;10.168;2023-06-22T08:07:37;101682.00;;;26.00
27986;BMP280;15453;53.692;10.168;2023-06-22T08:10:03;101682.66;;;26.06
27986;BMP280;15453;53.692;10.168;2023-06-22T08:12:29;101676.38;;;26.09
27986;BMP280;15453;53.692;10.168;2023-06-22T08:14:55;101681.50;;;26.15
27986;BMP280;15453;53.692;10.168;2023-06-22T08:17:21;101681.00;;;26.22
27986;BMP280;15453;53.692;10.168;2023-06-22T08:19:47;101677.22;;;26.26
27986;BMP280;15453;53.692;10.168;2023-06-22T08:22:12;101684.63;;;26.31
27986;BMP280;15453;53.692;10.168;2023-06-22T08:24:37;101689.25;;;26.35
27986;BMP280;15453;53.692;10.168;2023-06-22T08:27:03;101673.88;;;26.41
27986;BMP280;15453;53.692;10.168;2023-06-22T08:29:28;101665.78;;;26.48
27986;BMP280;15453;53.692;10.168;2023-06-22T08:31:54;101679.31;;;26.55
27986;BMP280;15453;53.692;10.168;2023-06-22T08:34:19;101671.09;;;26.58
27986;BMP280;15453;53.692;10.168;2023-06-22T08:36:47;101681.81;;;26.65
27986;BMP280;15453;53.692;10.168;2023-06-22T08:39:16;101668.84;;;26.81
27986;BMP280;15453;53.692;10.168;2023-06-22T08:41:42;101668.84;;;26.81
27986;BMP280;15453;53.692;10.168;2023-06-22T08:44:07;101679.09;;;26.86
27986;BMP280;15453;53.692;10.168;2023-06-22T08:46:32;101656.41;;;26.91
27986;BMP280;15453;53.692;10.168;2023-06-22T08:48:59;101673.94;;;26.96
27986;BMP280;15453;53.692;10.168;2023-06-22T08:51:24;101670.94;;;27.01
27986;BMP280;15453;53.692;10.168;2023-06-22T08:53:50;101668.28;;;27.05
27986;BMP280;15453;53.692;10.168;2023-06-22T08:56:15;101663.63;;;27.09
27986;BMP280;15453;53.692;10.168;2023-06-22T08:58:41;101664.25;;;27.14
27986;BMP280;15453;53.692;10.168;2023-06-22T09:01:06;101646.72;;;27.17
27986;BMP280;15453;53.692;10.168;2023-06-22T09:03:32;101648.53;;;27.22
27986;BMP280;15453;53.692;10.168;2023-06-22T09:06:00;101653.13;;;27.26
27986;BMP280;15453;53.692;10.168;2023-06-22T09:11:47;101651.81;;;27.32
27986;BMP280;15453;53.692;10.168;2023-06-22T09:14:12;101651.59;;;27.37
27986;BMP280;15453;53.692;10.168;2023-06-22T09:16:37;101648.44;;;27.39
27986;BMP280;15453;53.692;10.168;2023-06-22T09:19:02;101642.63;;;27.44
27986;BMP280;15453;53.692;10.168;2023-06-22T09:21:28;101636.78;;;27.49
27986;BMP280;15453;53.692;10.168;2023-06-22T09:23:54;101639.75;;;27.52
27986;BMP280;15453;53.692;10.168;2023-06-22T09:26:20;101626.44;;;27.61
27986;BMP280;15453;53.692;10.168;2023-06-22T09:28:45;101627.34;;;27.74
27986;BMP280;15453;53.692;10.168;2023-06-22T09:31:11;101627.34;;;27.74
27986;BMP280;15453;53.692;10.168;2023-06-22T09:33:37;101622.53;;;27.74
27986;BMP280;15453;53.692;10.168;2023-06-22T09:36:06;101616.34;;;27.81
27986;BMP280;15453;53.692;10.168;2023-06-22T09:38:38;101620.22;;;27.97
27986;BMP280;15453;53.692;10.168;2023-06-22T09:41:04;101620.22;;;27.97
27986;BMP280;15453;53.692;10.168;2023-06-22T09:43:30;101612.59;;;27.97
27986;BMP280;15453;53.692;10.168;2023-06-22T09:46:01;101608.88;;;28.05
27986;BMP280;15453;53.692;10.168;2023-06-22T09:48:28;101609.97;;;28.13
27986;BMP280;15453;53.692;10.168;2023-06-22T09:50:54;101601.75;;;28.20
27986;BMP280;15453;53.692;10.168;2023-06-22T09:53:20;101601.19;;;28.26
27986;BMP280;15453;53.692;10.168;2023-06-22T09:55:45;101609.09;;;28.33
27986;BMP280;15453;53.692;10.168;2023-06-22T09:58:10;101593.63;;;28.39
27986;BMP280;15453;53.692;10.168;2023-06-22T10:00:36;101596.59;;;28.42
27986;BMP280;15453;53.692;10.168;2023-06-22T10:03:02;101599.16;;;28.47
27986;BMP280;15453;53.692;10.168;2023-06-22T10:05:27;101601.41;;;28.54
27986;BMP280;15453;53.692;10.168;2023-06-22T10:07:53;101592.88;;;28.62
27986;BMP280;15453;53.692;10.168;2023-06-22T10:10:18;101603.13;;;28.67
27986;BMP280;15453;53.692;10.168;2023-06-22T10:12:46;101591.25;;;28.73
27986;BMP280;15453;53.692;10.168;2023-06-22T10:15:12;101605.00;;;28.87
27986;BMP280;15453;53.692;10.168;2023-06-22T10:17:37;101600.78;;;28.93
27986;BMP280;15453;53.692;10.168;2023-06-22T10:20:04;101592.09;;;28.98
27986;BMP280;15453;53.692;10.168;2023-06-22T10:22:40;101592.09;;;28.98
27986;BMP280;15453;53.692;10.168;2023-06-22T10:25:06;101598.00;;;29.05
27986;BMP280;15453;53.692;10.168;2023-06-22T10:27:32;101583.41;;;29.15
27986;BMP280;15453;53.692;10.168;2023-06-22T10:29:57;101584.59;;;29.26
27986;BMP280;15453;53.692;10.168;2023-06-22T10:32:23;101578.09;;;29.37
27986;BMP280;15453;53.692;10.168;2023-06-22T10:34:48;101583.00;;;29.52
27986;BMP280;15453;53.692;10.168;2023-06-22T10:37:13;101583.00;;;29.64
27986;BMP280;15453;53.692;10.168;2023-06-22T10:39:39;101576.16;;;29.77
27986;BMP280;15453;53.692;10.168;2023-06-22T10:42:04;101576.91;;;29.90
27986;BMP280;15453;53.692;10.168;2023-06-22T10:44:29;101578.84;;;30.01
27986;BMP280;15453;53.692;10.168;2023-06-22T10:46:55;101570.22;;;30.10
27986;BMP280;15453;53.692;10.168;2023-06-22T10:49:23;101570.19;;;30.22
27986;BMP280;15453;53.692;10.168;2023-06-22T10:51:48;101563.00;;;30.24
27986;BMP280;15453;53.692;10.168;2023-06-22T10:54:14;101563.00;;;30.24
27986;BMP280;15453;53.692;10.168;2023-06-22T10:56:42;101563.38;;;30.23
27986;BMP280;15453;53.692;10.168;2023-06-22T10:59:07;101556.53;;;30.24
27986;BMP280;15453;53.692;10.168;2023-06-22T11:01:32;101556.53;;;30.24
27986;BMP280;15453;53.692;10.168;2023-06-22T11:03:58;101553.59;;;30.20
27986;BMP280;15453;53.692;10.168;2023-06-22T11:06:24;101555.59;;;30.20
27986;BMP280;15453;53.692;10.168;2023-06-22T11:08:49;101540.75;;;30.23
27986;BMP280;15453;53.692;10.168;2023-06-22T11:11:15;101549.22;;;30.23
27986;BMP280;15453;53.692;10.168;2023-06-22T11:13:42;101536.38;;;30.25
27986;BMP280;15453;53.692;10.168;2023-06-22T11:16:07;101537.03;;;30.34
27986;BMP280;15453;53.692;10.168;2023-06-22T11:18:32;101549.72;;;30.40
27986;BMP280;15453;53.692;10.168;2023-06-22T11:20:59;101543.44;;;30.47
27986;BMP280;15453;53.692;10.168;2023-06-22T11:23:24;101533.13;;;30.54
27986;BMP280;15453;53.692;10.168;2023-06-22T11:25:51;101526.75;;;30.57
27986;BMP280;15453;53.692;10.168;2023-06-22T11:28:16;101534.66;;;30.67
27986;BMP280;15453;53.692;10.168;2023-06-22T11:30:42;101528.50;;;30.77
27986;BMP280;15453;53.692;10.168;2023-06-22T11:33:08;101522.56;;;30.82
27986;BMP280;15453;53.692;10.168;2023-06-22T11:35:36;101518.63;;;30.87
27986;BMP280;15453;53.692;10.168;2023-06-22T11:38:02;101518.63;;;30.87
27986;BMP280;15453;53.692;10.168;2023-06-22T11:40:28;101527.19;;;30.90
27986;BMP280;15453;53.692;10.168;2023-06-22T11:42:54;101527.19;;;30.90
27986;BMP280;15453;53.692;10.168;2023-06-22T11:45:19;101520.34;;;30.91
27986;BMP280;15453;53.692;10.168;2023-06-22T11:47:48;101519.25;;;30.96
27986;BMP280;15453;53.692;10.168;2023-06-22T11:50:14;101518.50;;;30.99
27986;BMP280;15453;53.692;10.168;2023-06-22T11:52:39;101517.78;;;31.02
27986;BMP280;15453;53.692;10.168;2023-06-22T11:55:05;101512.13;;;31.02
27986;BMP280;15453;53.692;10.168;2023-06-22T11:57:36;101513.31;;;31.01
27986;BMP280;15453;53.692;10.168;2023-06-22T12:00:03;101515.31;;;31.00
27986;BMP280;15453;53.692;10.168;2023-06-22T12:02:31;101516.94;;;31.01
27986;BMP280;15453;53.692;10.168;2023-06-22T12:04:56;101516.94;;;31.01
27986;BMP280;15453;53.692;10.168;2023-06-22T12:07:23;101510.56;;;31.04
27986;BMP280;15453;53.692;10.168;2023-06-22T12:09:48;101513.09;;;31.09
27986;BMP280;15453;53.692;10.168;2023-06-22T12:12:13;101514.16;;;31.20
27986;BMP280;15453;53.692;10.168;2023-06-22T12:14:39;101514.16;;;31.20
27986;BMP280;15453;53.692;10.168;2023-06-22T12:17:04;101487.22;;;31.27
27986;BMP280;15453;53.692;10.168;2023-06-22T12:19:29;101489.31;;;31.30
27986;BMP280;15453;53.692;10.168;2023-06-22T12:21:54;101489.31;;;31.30
27986;BMP280;15453;53.692;10.168;2023-06-22T12:24:20;101489.69;;;31.28
27986;BMP280;15453;53.692;10.168;2023-06-22T12:26:45;101477.56;;;31.28
27986;BMP280;15453;53.692;10.168;2023-06-22T12:29:10;101477.94;;;31.26
27986;BMP280;15453;53.692;10.168;2023-06-22T12:31:36;101479.13;;;31.25
27986;BMP280;15453;53.692;10.168;2023-06-22T12:34:03;101474.28;;;31.26
27986;BMP280;15453;53.692;10.168;2023-06-22T12:36:29;101469.66;;;31.37
27986;BMP280;15453;53.692;10.168;2023-06-22T12:38:54;101469.66;;;31.37
27986;BMP280;15453;53.692;10.168;2023-06-22T12:41:19;101464.81;;;31.37
27986;BMP280;15453;53.692;10.168;2023-06-22T12:43:46;101457.22;;;31.41
27986;BMP280;15453;53.692;10.168;2023-06-22T12:46:11;101462.59;;;31.46
27986;BMP280;15453;53.692;10.168;2023-06-22T12:48:36;101460.28;;;31.52
27986;BMP280;15453;53.692;10.168;2023-06-22T12:51:07;101459.91;;;31.53
27986;BMP280;15453;53.692;10.168;2023-06-22T12:53:32;101457.06;;;31.53
27986;BMP280;15453;53.692;10.168;2023-06-22T12:55:57;101456.38;;;31.60
27986;BMP280;15453;53.692;10.168;2023-06-22T12:58:23;101456.38;;;31.60
27986;BMP280;15453;53.692;10.168;2023-06-22T13:00:48;101450.28;;;31.58
27986;BMP280;15453;53.692;10.168;2023-06-22T13:03:14;101443.44;;;31.59
27986;BMP280;15453;53.692;10.168;2023-06-22T13:05:39;101443.44;;;31.59
27986;BMP280;15453;53.692;10.168;2023-06-22T13:08:04;101446.56;;;31.54
27986;BMP280;15453;53.692;10.168;2023-06-22T13:10:30;101441.69;;;31.54
27986;BMP280;15453;53.692;10.168;2023-06-22T13:12:55;101441.28;;;31.52
27986;BMP280;15453;53.692;10.168;2023-06-22T13:15:25;101432.78;;;31.52
27986;BMP280;15453;53.692;10.168;2023-06-22T13:17:51;101444.94;;;31.53
27986;BMP280;15453;53.692;10.168;2023-06-22T13:20:16;101441.13;;;31.64
27986;BMP280;15453;53.692;10.168;2023-06-22T13:22:41;101441.13;;;31.64
27986;BMP280;15453;53.692;10.168;2023-06-22T13:25:09;101438.34;;;31.68
27986;BMP280;15453;53.692;10.168;2023-06-22T13:27:40;101434.03;;;31.74
27986;BMP280;15453;53.692;10.168;2023-06-22T13:30:06;101435.75;;;31.78
27986;BMP280;15453;53.692;10.168;2023-06-22T13:32:31;101431.81;;;31.83
27986;BMP280;15453;53.692;10.168;2023-06-22T13:34:57;101433.50;;;31.87
27986;BMP280;15453;53.692;10.168;2023-06-22T13:37:22;101428.84;;;31.98
27986;BMP280;15453;53.692;10.168;2023-06-22T13:39:48;101428.84;;;31.98
27986;BMP280;15453;53.692;10.168;2023-06-22T13:42:13;101425.69;;;32.03
27986;BMP280;15453;53.692;10.168;2023-06-22T13:44:38;101421.47;;;32.16